createdAt,value
2023-04-15T00:01:51.321Z,92434.88
2023-04-15T00:04:18.404Z,92436.44
2023-04-15T00:06:50.090Z,92452.66
2023-04-15T00:09:16.957Z,92467.81
2023-04-15T00:11:43.486Z,92485.63
2023-04-15T00:14:10.165Z,92498.97
2023-04-15T00:16:36.750Z,92511.25
2023-04-15T00:19:03.550Z,92534.22
2023-04-15T00:21:30.182Z,92543.66
2023-04-15T00:23:56.972Z,92559.63
2023-04-15T00:26:23.509Z,92553.63
2023-04-15T00:28:50.629Z,92557.25
2023-04-15T00:31:17.309Z,92567.47
2023-04-15T00:33:43.984Z,92590.50
2023-04-15T00:36:11.345Z,92602.25
2023-04-15T00:38:38.172Z,92608.75
2023-04-15T00:41:04.996Z,92620.00
2023-04-15T00:43:31.505Z,92604.34
2023-04-15T00:45:58.957Z,92621.59
2023-04-15T00:48:26.605Z,92627.63
2023-04-15T00:50:53.029Z,92638.31
2023-04-15T00:53:19.708Z,92631.56
2023-04-15T00:55:46.550Z,92644.63
2023-04-15T00:58:13.426Z,92639.94
2023-04-15T01:00:41.138Z,92649.88
2023-04-15T01:03:07.932Z,92634.19
2023-04-15T01:05:34.958Z,92652.53
2023-04-15T01:08:02.094Z,92657.22
2023-04-15T01:10:28.651Z,92663.75
2023-04-15T01:12:55.215Z,92659.06
2023-04-15T01:15:22.087Z,92669.78
2023-04-15T01:17:49.005Z,92691.69
2023-04-15T01:20:20.424Z,92664.00
2023-04-15T01:22:53.141Z,92666.59
2023-04-15T01:25:20.492Z,92660.84
2023-04-15T01:27:47.674Z,92658.25
2023-04-15T01:30:14.229Z,92658.50
2023-04-15T01:32:46.741Z,92663.47
2023-04-15T01:35:13.255Z,92644.66
2023-04-15T01:37:39.790Z,92661.44
2023-04-15T01:40:06.754Z,92684.44
2023-04-15T01:42:33.829Z,92689.66
2023-04-15T01:45:00.469Z,92714.00
2023-04-15T01:47:27.253Z,92739.88
2023-04-15T01:49:59.865Z,92739.81
2023-04-15T01:52:26.461Z,92723.09
2023-04-15T01:54:53.770Z,92712.63
2023-04-15T01:57:20.370Z,92691.38
2023-04-15T01:59:47.048Z,92695.63
2023-04-15T02:02:13.553Z,92678.13
2023-04-15T02:04:40.275Z,92668.19
2023-04-15T02:07:07.232Z,92673.41
2023-04-15T02:09:33.912Z,92672.38
2023-04-15T02:12:00.848Z,92666.63
2023-04-15T02:14:27.515Z,92671.34
2023-04-15T02:16:54.275Z,92660.94
2023-04-15T02:19:20.892Z,92673.75
2023-04-15T02:21:47.303Z,92711.69
2023-04-15T02:24:13.917Z,92737.06
2023-04-15T02:26:43.480Z,92752.50
2023-04-15T02:29:13.495Z,92754.78
2023-04-15T02:31:44.366Z,92767.09
2023-04-15T02:34:11.326Z,92755.13
2023-04-15T02:36:37.784Z,92756.66
2023-04-15T02:39:04.537Z,92756.72
2023-04-15T02:41:32.332Z,92759.38
2023-04-15T02:43:58.897Z,92771.19
2023-04-15T02:46:25.551Z,92815.09
2023-04-15T02:48:53.918Z,92839.47
2023-04-15T02:51:21.543Z,92859.38
2023-04-15T02:53:49.092Z,92888.66
2023-04-15T02:56:18.458Z,92886.59
2023-04-15T02:58:50.783Z,92915.78
2023-04-15T03:01:17.550Z,92933.03
2023-04-15T03:03:44.092Z,92945.81
2023-04-15T03:06:10.988Z,92910.06
2023-04-15T03:08:39.733Z,92905.94
2023-04-15T03:11:06.726Z,92922.63
2023-04-15T03:13:33.300Z,92925.28
2023-04-15T03:15:59.936Z,92924.78
2023-04-15T03:18:26.490Z,92940.94
2023-04-15T03:20:53.226Z,92940.94
2023-04-15T03:23:19.972Z,92929.94
2023-04-15T03:25:46.584Z,92902.69
2023-04-15T03:28:13.799Z,92904.38
2023-04-15T03:30:40.513Z,92909.66
2023-04-15T03:33:07.071Z,92909.66
2023-04-15T03:35:33.817Z,92931.69
2023-04-15T03:38:00.405Z,92942.69
2023-04-15T03:40:27.291Z,92961.53
2023-04-15T03:42:53.935Z,92998.09
2023-04-15T03:45:20.793Z,92983.97
2023-04-15T03:47:47.468Z,92983.47
2023-04-15T03:50:15.882Z,92984.50
2023-04-15T03:52:42.396Z,92996.44
2023-04-15T03:55:10.808Z,92990.94
2023-04-15T03:57:39.420Z,92981.00
2023-04-15T04:00:06.462Z,92938.59
2023-04-15T04:02:33.366Z,92942.63
2023-04-15T04:05:00.159Z,92934.31
2023-04-15T04:07:26.817Z,92938.47
2023-04-15T04:09:53.397Z,92941.66
2023-04-15T04:12:19.813Z,92930.72
2023-04-15T04:14:48.622Z,92929.44
2023-04-15T04:17:15.192Z,92935.00
2023-04-15T04:19:41.865Z,92965.34
2023-04-15T04:22:08.382Z,92977.47
2023-04-15T04:24:35.053Z,92986.88
2023-04-15T04:27:02.292Z,93001.06
2023-04-15T04:29:29.207Z,93052.44
2023-04-15T04:31:56.015Z,93034.63
2023-04-15T04:34:22.810Z,93012.69
2023-04-15T04:36:49.569Z,93021.06
2023-04-15T04:39:16.160Z,93017.69
2023-04-15T04:41:42.723Z,93020.09
2023-04-15T04:44:09.194Z,93013.06
2023-04-15T04:46:35.719Z,93020.13
2023-04-15T04:49:02.520Z,93015.41
2023-04-15T04:51:29.270Z,93018.06
2023-04-15T04:53:56.861Z,93026.97
2023-04-15T04:56:26.325Z,93036.41
2023-04-15T04:58:53.261Z,93037.50
2023-04-15T05:01:20.092Z,93034.34
2023-04-15T05:03:47.405Z,93017.03
2023-04-15T05:06:13.919Z,93006.03
2023-04-15T05:08:41.525Z,92968.00
2023-04-15T05:11:08.774Z,92944.91
2023-04-15T05:13:38.907Z,92923.69
2023-04-15T05:16:06.362Z,92911.06
2023-04-15T05:18:32.993Z,92894.81
2023-04-15T05:20:59.824Z,92893.75
2023-04-15T05:23:26.837Z,92885.63
2023-04-15T05:25:53.825Z,92877.25
2023-04-15T05:28:20.494Z,92865.97
2023-04-15T05:30:47.020Z,92853.38
2023-04-15T05:33:13.573Z,92829.47
2023-04-15T05:35:43.208Z,92828.16
2023-04-15T05:38:11.894Z,92805.09
2023-04-15T05:40:38.365Z,92792.22
2023-04-15T05:43:05.280Z,92782.00
2023-04-15T05:45:31.977Z,92772.53
2023-04-15T05:47:58.595Z,92770.97
2023-04-15T05:50:25.116Z,92758.63
2023-04-15T05:52:51.600Z,92757.06
2023-04-15T05:55:20.285Z,92735.00
2023-04-15T05:57:46.778Z,92741.03
2023-04-15T06:00:14.166Z,92734.72
2023-04-15T06:02:42.652Z,92743.13
2023-04-15T06:05:10.823Z,92735.00
2023-04-15T06:07:37.935Z,92737.34
2023-04-15T06:10:05.135Z,92764.91
2023-04-15T06:12:31.960Z,92753.59
2023-04-15T06:15:00.096Z,92774.34
2023-04-15T06:17:27.119Z,92774.34
2023-04-15T06:19:56.748Z,92773.84
2023-04-15T06:22:23.882Z,92755.69
2023-04-15T06:24:51.627Z,92762.53
2023-04-15T06:27:18.918Z,92771.44
2023-04-15T06:29:46.550Z,92764.59
2023-04-15T06:32:13.356Z,92770.38
2023-04-15T06:34:42.269Z,92762.00
2023-04-15T06:37:11.452Z,92765.66
2023-04-15T06:39:38.488Z,92763.06
2023-04-15T06:42:05.273Z,92738.09
2023-04-15T06:44:33.793Z,92745.69
2023-04-15T06:47:00.641Z,92726.75
2023-04-15T06:49:27.383Z,92742.28
2023-04-15T06:51:54.151Z,92748.31
2023-04-15T06:54:20.696Z,92649.59
2023-04-15T06:56:52.167Z,92777.69
2023-04-15T06:59:19.089Z,92743.53
2023-04-15T07:01:47.226Z,92759.84
2023-04-15T07:04:13.824Z,92749.06
2023-04-15T07:06:40.429Z,92759.81
2023-04-15T07:09:07.013Z,92749.59
2023-04-15T07:11:33.900Z,92732.22
2023-04-15T07:14:00.686Z,92717.78
2023-04-15T07:16:28.703Z,92726.44
2023-04-15T07:18:56.417Z,92713.56
2023-04-15T07:21:23.042Z,92710.91
2023-04-15T07:24:00.678Z,92713.53
2023-04-15T07:26:27.494Z,92731.44
2023-04-15T07:28:54.122Z,92734.09
2023-04-15T07:31:20.822Z,92742.97
2023-04-15T07:33:47.222Z,92733.53
2023-04-15T07:36:14.283Z,92716.44
2023-04-15T07:38:42.766Z,92712.50
2023-04-15T07:41:09.573Z,92696.47
2023-04-15T07:43:36.122Z,92697.75
2023-04-15T07:46:02.813Z,92703.00
2023-04-15T07:48:29.388Z,92738.78
2023-04-15T07:50:59.787Z,92684.59
2023-04-15T07:53:26.662Z,92685.91
2023-04-15T07:55:53.287Z,92679.88
2023-04-15T07:58:19.898Z,92665.69
2023-04-15T08:00:46.730Z,92676.53
2023-04-15T08:03:13.449Z,92674.16
2023-04-15T08:05:40.143Z,92672.84
2023-04-15T08:08:07.193Z,92658.88
2023-04-15T08:10:33.939Z,92666.78
2023-04-15T08:13:01.160Z,92663.38
2023-04-15T08:15:29.754Z,92668.94
2023-04-15T08:17:56.286Z,92663.13
2023-04-15T08:20:22.764Z,92654.91
2023-04-15T08:22:52.049Z,92649.38
2023-04-15T08:25:19.821Z,92668.38
2023-04-15T08:27:46.754Z,92657.28
2023-04-15T08:30:14.509Z,92652.53
2023-04-15T08:32:48.129Z,92662.56
2023-04-15T08:35:15.750Z,92664.66
2023-04-15T08:37:42.875Z,92667.28
2023-04-15T08:40:09.972Z,92674.38
2023-04-15T08:42:47.601Z,92689.84
2023-04-15T08:45:15.213Z,92592.84
2023-04-15T08:47:43.456Z,92694.53
2023-04-15T08:50:10.821Z,92706.09
2023-04-15T08:52:37.332Z,92726.41
2023-04-15T08:55:04.988Z,92738.47
2023-04-15T08:57:31.586Z,92739.78
2023-04-15T08:59:58.380Z,92764.72
2023-04-15T09:02:28.763Z,92725.59
2023-04-15T09:04:56.929Z,92714.56
2023-04-15T09:07:23.397Z,92711.38
2023-04-15T09:09:51.009Z,92705.06
2023-04-15T09:12:18.410Z,92680.38
2023-04-15T09:14:46.181Z,92681.41
2023-04-15T09:17:14.232Z,92695.38
2023-04-15T09:19:40.747Z,92689.78
2023-04-15T09:22:07.427Z,92689.31
2023-04-15T09:24:37.507Z,92684.09
2023-04-15T09:27:04.693Z,92680.06
2023-04-15T09:29:31.633Z,92697.88
2023-04-15T09:32:09.176Z,92702.88
2023-04-15T09:34:37.597Z,92681.28
2023-04-15T09:37:04.380Z,92668.38
2023-04-15T09:39:50.277Z,92666.06
2023-04-15T09:42:24.853Z,92649.69
2023-04-15T09:44:52.885Z,92636.06
2023-04-15T09:47:29.358Z,92634.53
2023-04-15T09:49:57.461Z,92621.84
2023-04-15T09:52:24.041Z,92611.28
2023-04-15T09:54:53.218Z,92578.88
2023-04-15T09:57:25.259Z,92552.25
2023-04-15T09:59:52.165Z,92567.66
2023-04-15T10:02:20.205Z,92550.25
2023-04-15T10:04:48.901Z,92554.16
2023-04-15T10:07:15.825Z,92552.81
2023-04-15T10:09:45.834Z,92559.66
2023-04-15T10:12:12.652Z,92561.00
2023-04-15T10:14:40.331Z,92565.50
2023-04-15T10:17:08.556Z,92576.06
2023-04-15T10:19:37.519Z,92584.56
2023-04-15T10:22:06.040Z,92548.06
2023-04-15T10:24:34.095Z,92573.44
2023-04-15T10:27:01.608Z,92561.84
2023-04-15T10:29:28.820Z,92537.50
2023-04-15T10:31:56.722Z,92540.19
2023-04-15T10:34:24.663Z,92601.31
2023-04-15T10:36:52.205Z,92529.22
2023-04-15T10:39:34.661Z,92512.34
2023-04-15T10:42:07.705Z,92480.25
2023-04-15T10:44:34.463Z,92501.97
2023-04-15T10:47:01.269Z,92461.31
2023-04-15T10:49:27.862Z,92441.19
2023-04-15T10:51:58.423Z,92433.59
2023-04-15T10:54:25.013Z,92431.78
2023-04-15T10:56:52.659Z,92412.97
2023-04-15T10:59:20.836Z,92426.47
2023-04-15T11:01:52.543Z,92432.56
2023-04-15T11:04:39.956Z,92431.22
2023-04-15T11:07:08.230Z,92429.69
2023-04-15T11:09:36.032Z,92427.41
2023-04-15T11:12:10.891Z,92449.56
2023-04-15T11:14:41.693Z,92431.09
2023-04-15T11:17:08.227Z,92436.94
2023-04-15T11:19:39.016Z,92435.78
2023-04-15T11:22:09.196Z,92416.81
2023-04-15T11:24:38.259Z,92407.81
2023-04-15T11:27:04.844Z,92404.69
2023-04-15T11:29:34.556Z,92386.69
2023-04-15T11:32:09.517Z,92365.50
2023-04-15T11:34:36.660Z,92342.25
2023-04-15T11:37:10.550Z,92368.22
2023-04-15T11:39:39.516Z,92325.25
2023-04-15T11:42:16.519Z,92367.22
2023-04-15T11:44:43.042Z,92354.28
2023-04-15T11:47:22.919Z,92352.09
2023-04-15T11:49:49.593Z,92368.28
2023-04-15T11:52:16.367Z,92389.88
2023-04-15T11:54:42.939Z,92391.09
2023-04-15T11:57:09.524Z,92397.72
2023-04-15T11:59:46.341Z,92401.28
2023-04-15T12:02:13.623Z,92396.44
2023-04-15T12:04:41.451Z,92439.78
2023-04-15T12:07:08.681Z,92437.16
2023-04-15T12:09:37.891Z,92461.84
2023-04-15T12:12:04.566Z,92467.31
2023-04-15T12:14:32.183Z,92475.25
2023-04-15T12:17:00.403Z,92489.13
2023-04-15T12:19:28.857Z,92500.22
2023-04-15T12:22:00.807Z,92486.00
2023-04-15T12:24:28.579Z,92496.03
2023-04-15T12:26:58.616Z,92464.25
2023-04-15T12:29:27.069Z,92464.50
2023-04-15T12:31:55.146Z,92463.22
2023-04-15T12:34:28.349Z,92480.19
2023-04-15T12:36:57.989Z,92469.22
2023-04-15T12:39:25.942Z,92470.09
2023-04-15T12:41:53.419Z,92457.66
2023-04-15T12:44:21.293Z,92471.22
2023-04-15T12:46:51.043Z,92457.78
2023-04-15T12:49:21.054Z,92417.19
2023-04-15T12:51:49.062Z,92489.25
2023-04-15T12:54:16.974Z,92482.81
2023-04-15T12:56:44.457Z,92507.06
2023-04-15T12:59:11.259Z,92517.34
2023-04-15T13:01:38.264Z,92504.28
2023-04-15T13:04:05.564Z,92541.63
2023-04-15T13:06:35.491Z,92560.94
2023-04-15T13:09:05.718Z,92510.09
2023-04-15T13:11:34.249Z,92528.38
2023-04-15T13:14:05.283Z,92522.47
2023-04-15T13:16:32.490Z,92525.41
2023-04-15T13:19:00.139Z,92521.81
2023-04-15T13:21:28.378Z,92499.53
2023-04-15T13:23:57.018Z,92516.47
2023-04-15T13:26:23.592Z,92480.50
2023-04-15T13:28:50.587Z,92474.91
2023-04-15T13:31:17.337Z,92489.97
2023-04-15T13:33:43.971Z,92501.53
2023-04-15T13:36:10.676Z,92486.78
2023-04-15T13:38:38.034Z,92492.63
2023-04-15T13:41:04.819Z,92490.00
2023-04-15T13:43:33.785Z,92504.78
2023-04-15T13:46:02.031Z,92502.66
2023-04-15T13:48:28.897Z,92490.47
2023-04-15T13:51:08.910Z,92499.69
2023-04-15T13:53:39.740Z,92485.41
2023-04-15T13:56:07.646Z,92482.50
2023-04-15T13:58:34.292Z,92510.53
2023-04-15T14:01:03.202Z,92505.47
2023-04-15T14:03:31.631Z,92488.47
2023-04-15T14:06:06.841Z,92490.84
2023-04-15T14:08:33.474Z,92494.03
2023-04-15T14:11:00.304Z,92489.25
2023-04-15T14:13:26.992Z,92482.78
2023-04-15T14:15:53.766Z,92509.31
2023-04-15T14:18:20.559Z,92488.06
2023-04-15T14:20:47.436Z,92512.16
2023-04-15T14:23:14.007Z,92505.28
2023-04-15T14:25:40.737Z,92495.50
2023-04-15T14:28:10.269Z,92522.34
2023-04-15T14:30:37.306Z,92520.19
2023-04-15T14:33:04.477Z,92513.59
2023-04-15T14:35:31.601Z,92518.63
2023-04-15T14:37:58.268Z,92511.09
2023-04-15T14:40:24.887Z,92506.25
2023-04-15T14:42:51.597Z,92509.81
2023-04-15T14:45:19.420Z,92541.41
2023-04-15T14:47:46.583Z,92540.06
2023-04-15T14:50:13.290Z,92553.41
2023-04-15T14:52:41.040Z,92560.75
2023-04-15T14:55:08.810Z,92582.66
2023-04-15T14:57:35.447Z,92591.63
2023-04-15T15:00:02.484Z,92599.59
2023-04-15T15:02:38.530Z,92624.41
2023-04-15T15:05:06.608Z,92602.59
2023-04-15T15:07:33.261Z,92612.63
2023-04-15T15:09:59.970Z,92611.78
2023-04-15T15:12:26.557Z,92622.53
2023-04-15T15:14:53.174Z,92627.78
2023-04-15T15:17:19.886Z,92636.41
2023-04-15T15:19:46.876Z,92655.69
2023-04-15T15:22:13.683Z,92675.25
2023-04-15T15:24:40.593Z,92666.09
2023-04-15T15:27:07.066Z,92710.03
2023-04-15T15:29:34.167Z,92688.75
2023-04-15T15:32:00.707Z,92698.81
2023-04-15T15:34:27.467Z,92696.91
2023-04-15T15:36:55.738Z,92711.97
2023-04-15T15:39:25.417Z,92721.91
2023-04-15T15:41:52.180Z,92749.38
2023-04-15T15:44:18.744Z,92764.66
2023-04-15T15:46:45.875Z,92770.00
2023-04-15T15:49:12.905Z,92782.22
2023-04-15T15:51:39.567Z,92775.59
2023-04-15T15:54:06.178Z,92777.75
2023-04-15T15:56:33.686Z,92763.19
2023-04-15T15:59:00.448Z,92760.47
2023-04-15T16:01:27.260Z,92766.97
2023-04-15T16:03:54.112Z,92754.47
2023-04-15T16:06:21.820Z,92750.50
2023-04-15T16:08:48.700Z,92745.72
2023-04-15T16:11:15.591Z,92748.38
2023-04-15T16:13:42.344Z,92734.81
2023-04-15T16:16:09.257Z,92737.84
2023-04-15T16:18:36.026Z,92715.50
2023-04-15T16:21:02.858Z,92752.63
2023-04-15T16:23:29.263Z,92753.44
2023-04-15T16:25:56.457Z,92758.47
2023-04-15T16:28:26.881Z,92751.28
2023-04-15T16:30:54.135Z,92754.97
2023-04-15T16:33:28.572Z,92776.41
2023-04-15T16:35:55.227Z,92775.88
2023-04-15T16:38:21.888Z,92768.75
2023-04-15T16:40:48.813Z,92767.41
2023-04-15T16:43:15.467Z,92761.09
2023-04-15T16:45:44.608Z,92763.72
2023-04-15T16:48:11.228Z,92772.47
2023-04-15T16:50:37.743Z,92771.34
2023-04-15T16:53:04.359Z,92770.53
2023-04-15T16:55:31.117Z,92794.31
2023-04-15T16:58:01.485Z,92819.88
2023-04-15T17:00:32.905Z,92810.88
2023-04-15T17:03:01.195Z,92828.03
2023-04-15T17:05:28.360Z,92826.13
2023-04-15T17:07:55.441Z,92824.00
2023-04-15T17:10:22.250Z,92845.97
2023-04-15T17:12:50.020Z,92833.19
2023-04-15T17:15:17.137Z,92842.72
2023-04-15T17:17:43.801Z,92844.84
2023-04-15T17:20:11.110Z,92858.63
2023-04-15T17:22:37.774Z,92858.06
2023-04-15T17:25:04.981Z,92856.19
2023-04-15T17:27:31.853Z,92846.47
2023-04-15T17:29:58.553Z,92842.50
2023-04-15T17:32:26.544Z,92853.34
2023-04-15T17:34:53.148Z,92846.69
2023-04-15T17:37:19.768Z,92842.28
2023-04-15T17:39:47.636Z,92842.78
2023-04-15T17:42:14.120Z,92849.16
2023-04-15T17:44:41.133Z,92843.13
2023-04-15T17:47:07.843Z,92814.38
2023-04-15T17:49:34.865Z,92810.16
2023-04-15T17:52:01.541Z,92820.72
2023-04-15T17:54:28.381Z,92802.78
2023-04-15T17:56:55.290Z,92801.47
2023-04-15T17:59:22.028Z,92797.78
2023-04-15T18:01:48.806Z,92789.81
2023-04-15T18:04:17.041Z,92784.34
2023-04-15T18:06:44.076Z,92787.53
2023-04-15T18:09:11.033Z,92781.72
2023-04-15T18:11:39.467Z,92772.75
2023-04-15T18:14:06.966Z,92773.81
2023-04-15T18:16:34.264Z,92768.56
2023-04-15T18:19:02.287Z,92781.53
2023-04-15T18:21:28.801Z,92774.56
2023-04-15T18:23:55.631Z,92780.44
2023-04-15T18:26:22.311Z,92776.44
2023-04-15T18:28:48.841Z,92763.50
2023-04-15T18:31:15.873Z,92773.25
2023-04-15T18:33:43.949Z,92776.47
2023-04-15T18:36:10.823Z,92768.81
2023-04-15T18:38:37.583Z,92765.63
2023-04-15T18:41:07.700Z,92752.69
2023-04-15T18:43:38.986Z,92753.75
2023-04-15T18:46:09.889Z,92762.22
2023-04-15T18:48:36.679Z,92761.94
2023-04-15T18:51:03.332Z,92759.50
2023-04-15T18:53:30.179Z,92777.75
2023-04-15T18:55:57.925Z,92764.28
2023-04-15T18:58:24.506Z,92758.72
2023-04-15T19:00:51.101Z,92757.19
2023-04-15T19:03:17.879Z,92761.34
2023-04-15T19:05:44.568Z,92745.78
2023-04-15T19:08:11.662Z,92747.38
2023-04-15T19:10:38.208Z,92763.50
2023-04-15T19:13:04.814Z,92759.56
2023-04-15T19:15:32.919Z,92749.53
2023-04-15T19:17:59.467Z,92760.06
2023-04-15T19:20:26.371Z,92743.66
2023-04-15T19:22:54.436Z,92753.19
2023-04-15T19:25:21.337Z,92735.81
2023-04-15T19:27:47.985Z,92733.91
2023-04-15T19:30:14.558Z,92743.22
2023-04-15T19:32:41.252Z,92718.91
2023-04-15T19:35:09.923Z,92724.16
2023-04-15T19:37:37.929Z,92716.75
2023-04-15T19:40:05.006Z,92715.72
2023-04-15T19:42:31.597Z,92731.34
2023-04-15T19:44:58.274Z,92707.31
2023-04-15T19:47:25.122Z,92698.81
2023-04-15T19:49:52.745Z,92697.28
2023-04-15T19:52:19.506Z,92685.47
2023-04-15T19:54:46.219Z,92672.00
2023-04-15T19:57:12.856Z,92671.50
2023-04-15T19:59:39.485Z,92655.94
2023-04-15T20:02:06.482Z,92646.38
2023-04-15T20:04:33.123Z,92640.31
2023-04-15T20:07:00.198Z,92627.69
2023-04-15T20:09:26.834Z,92622.41
2023-04-15T20:12:10.041Z,92606.59
2023-04-15T20:14:41.374Z,92599.47
2023-04-15T20:17:07.828Z,92599.75
2023-04-15T20:19:34.339Z,92588.66
2023-04-15T20:22:02.249Z,92570.22
2023-04-15T20:24:28.987Z,92566.50
2023-04-15T20:26:57.704Z,92554.84
2023-04-15T20:29:24.326Z,92552.28
2023-04-15T20:31:50.969Z,92542.03
2023-04-15T20:34:18.012Z,92543.41
2023-04-15T20:36:45.901Z,92525.06
2023-04-15T20:39:12.913Z,92513.47
2023-04-15T20:41:40.401Z,92513.47
2023-04-15T20:44:08.276Z,92502.06
2023-04-15T20:46:35.224Z,92496.09
2023-04-15T20:49:02.104Z,92492.88
2023-04-15T20:51:29.885Z,92489.19
2023-04-15T20:53:56.787Z,92488.91
2023-04-15T20:56:23.336Z,92484.72
2023-04-15T20:58:50.339Z,92483.44
2023-04-15T21:01:16.963Z,92479.44
2023-04-15T21:03:43.674Z,92473.09
2023-04-15T21:06:10.699Z,92468.31
2023-04-15T21:08:37.490Z,92468.63
2023-04-15T21:11:04.179Z,92456.41
2023-04-15T21:13:30.768Z,92475.72
2023-04-15T21:15:57.252Z,92461.91
2023-04-15T21:18:23.865Z,92481.00
2023-04-15T21:20:57.793Z,92466.19
2023-04-15T21:23:24.503Z,92460.91
2023-04-15T21:25:51.696Z,92450.38
2023-04-15T21:28:18.562Z,92451.13
2023-04-15T21:30:46.312Z,92442.41
2023-04-15T21:33:13.073Z,92434.41
2023-04-15T21:35:39.812Z,92429.91
2023-04-15T21:38:06.478Z,92434.00
2023-04-15T21:40:33.156Z,92435.84
2023-04-15T21:42:59.960Z,92431.28
2023-04-15T21:45:26.518Z,92420.22
2023-04-15T21:48:05.455Z,92411.16
2023-04-15T21:50:36.402Z,92408.84
2023-04-15T21:53:03.413Z,92424.44
2023-04-15T21:55:30.134Z,92415.38
2023-04-15T21:57:56.577Z,92414.84
2023-04-15T22:00:24.532Z,92411.47
2023-04-15T22:02:51.887Z,92419.16
2023-04-15T22:05:18.917Z,92394.78
2023-04-15T22:07:45.636Z,92404.31
2023-04-15T22:10:12.326Z,92361.94
2023-04-15T22:12:40.641Z,92412.84
2023-04-15T22:15:07.351Z,92403.34
2023-04-15T22:17:34.644Z,92390.09
2023-04-15T22:20:01.563Z,92400.16
2023-04-15T22:22:43.404Z,92390.09
2023-04-15T22:25:11.712Z,92381.69
2023-04-15T22:27:38.257Z,92398.88
2023-04-15T22:30:05.193Z,92377.41
2023-04-15T22:32:31.892Z,92394.56
2023-04-15T22:34:58.835Z,92392.25
2023-04-15T22:37:26.821Z,92398.00
2023-04-15T22:39:53.478Z,92403.84
2023-04-15T22:42:20.138Z,92413.31
2023-04-15T22:44:46.713Z,92419.38
2023-04-15T22:47:13.520Z,92426.00
2023-04-15T22:49:40.238Z,92421.72
2023-04-15T22:52:07.970Z,92425.91
2023-04-15T22:54:35.736Z,92435.94
2023-04-15T22:57:02.322Z,92434.88
2023-04-15T22:59:28.996Z,92432.72
2023-04-15T23:01:56.016Z,92436.44
2023-04-15T23:04:27.151Z,92432.63
2023-04-15T23:06:54.182Z,92445.91
2023-04-15T23:09:21.196Z,92458.03
2023-04-15T23:11:47.608Z,92449.53
2023-04-15T23:14:14.077Z,92459.00
2023-04-15T23:16:40.818Z,92472.25
2023-04-15T23:19:07.965Z,92481.72
2023-04-15T23:21:35.004Z,92493.34
2023-04-15T23:24:01.478Z,92495.41
2023-04-15T23:26:27.991Z,92504.88
2023-04-15T23:28:55.486Z,92518.94
2023-04-15T23:31:22.204Z,92524.19
2023-04-15T23:33:48.836Z,92542.13
2023-04-15T23:36:15.464Z,92536.06
2023-04-15T23:38:42.163Z,92544.50
2023-04-15T23:41:10.087Z,92550.72
2023-04-15T23:43:36.791Z,92569.25
2023-04-15T23:46:03.611Z,92559.13
2023-04-15T23:48:30.407Z,92579.22
2023-04-15T23:50:57.127Z,92575.25
2023-04-15T23:53:23.751Z,92579.63
2023-04-15T23:55:50.595Z,92601.94
2023-04-15T23:58:17.616Z,92606.63
